createdAt,value
2017-12-08T00:02:03.633Z,81.70
2017-12-08T00:04:30.034Z,81.30
2017-12-08T00:06:56.427Z,81.20
2017-12-08T00:09:22.840Z,82.10
2017-12-08T00:11:49.245Z,80.90
2017-12-08T00:14:17.082Z,80.20
2017-12-08T00:16:43.511Z,79.70
2017-12-08T00:19:09.896Z,79.50
2017-12-08T00:21:36.296Z,79.80
2017-12-08T00:24:02.679Z,81.40
2017-12-08T00:26:29.062Z,79.80
2017-12-08T00:28:56.194Z,76.70
2017-12-08T00:31:22.621Z,76.70
2017-12-08T00:33:49.000Z,77.00
2017-12-08T00:36:15.404Z,76.50
2017-12-08T00:38:46.839Z,75.90
2017-12-08T00:41:13.215Z,76.40
2017-12-08T00:43:40.334Z,76.40
2017-12-08T00:46:06.727Z,76.40
2017-12-08T00:48:33.113Z,77.90
2017-12-08T00:51:00.220Z,77.50
2017-12-08T00:53:26.614Z,77.50
2017-12-08T00:55:52.990Z,76.90
2017-12-08T00:58:19.350Z,78.00
2017-12-08T01:00:46.490Z,79.30
2017-12-08T01:03:12.896Z,79.90
2017-12-08T01:05:39.318Z,78.50
2017-12-08T01:08:05.703Z,77.80
2017-12-08T01:10:32.819Z,78.80
2017-12-08T01:12:59.211Z,78.80
2017-12-08T01:15:25.660Z,78.90
2017-12-08T01:17:52.054Z,79.40
2017-12-08T01:20:19.306Z,78.40
2017-12-08T01:22:45.714Z,78.40
2017-12-08T01:25:12.107Z,78.40
2017-12-08T01:27:38.487Z,78.80
2017-12-08T01:30:04.910Z,78.80
2017-12-08T01:32:31.309Z,78.20
2017-12-08T01:34:57.678Z,77.70
2017-12-08T01:37:24.066Z,78.20
2017-12-08T01:39:50.498Z,79.30
2017-12-08T01:42:16.880Z,79.60
2017-12-08T01:44:44.032Z,78.20
2017-12-08T01:47:10.431Z,78.10
2017-12-08T01:49:36.915Z,78.20
2017-12-08T01:52:03.337Z,78.20
2017-12-08T01:54:30.511Z,78.50
2017-12-08T01:56:56.908Z,78.50
2017-12-08T01:59:23.301Z,79.60
2017-12-08T02:01:49.706Z,79.60
2017-12-08T02:04:16.074Z,78.90
2017-12-08T02:06:42.485Z,78.40
2017-12-08T02:09:08.923Z,77.80
2017-12-08T02:11:35.352Z,78.20
2017-12-08T02:14:01.742Z,79.00
2017-12-08T02:16:28.895Z,79.20
2017-12-08T02:18:56.068Z,79.60
2017-12-08T02:21:22.492Z,79.60
2017-12-08T02:23:48.932Z,79.30
2017-12-08T02:26:15.534Z,78.90
2017-12-08T02:28:42.754Z,79.90
2017-12-08T02:31:09.170Z,79.30
2017-12-08T02:33:35.624Z,78.40
2017-12-08T02:36:02.040Z,78.90
2017-12-08T02:38:28.446Z,78.80
2017-12-08T02:40:54.875Z,79.30
2017-12-08T02:43:21.269Z,79.20
2017-12-08T02:45:49.128Z,79.90
2017-12-08T02:48:15.531Z,79.90
2017-12-08T02:50:41.971Z,79.20
2017-12-08T02:53:08.408Z,79.60
2017-12-08T02:55:34.803Z,79.40
2017-12-08T02:58:01.184Z,79.70
2017-12-08T03:00:27.603Z,79.30
2017-12-08T03:02:53.974Z,79.20
2017-12-08T03:05:21.107Z,78.80
2017-12-08T03:07:47.524Z,78.70
2017-12-08T03:10:13.911Z,78.40
2017-12-08T03:12:40.371Z,77.60
2017-12-08T03:15:06.778Z,77.20
2017-12-08T03:17:33.929Z,77.30
2017-12-08T03:20:01.038Z,77.30
2017-12-08T03:22:27.506Z,77.30
2017-12-08T03:24:54.636Z,77.60
2017-12-08T03:27:21.051Z,77.60
2017-12-08T03:29:49.018Z,77.70
2017-12-08T03:32:15.415Z,77.60
2017-12-08T03:34:42.550Z,77.30
2017-12-08T03:37:08.954Z,77.30
2017-12-08T03:39:36.113Z,77.20
2017-12-08T03:42:03.280Z,76.60
2017-12-08T03:44:29.682Z,76.60
2017-12-08T03:46:56.098Z,76.80
2017-12-08T03:49:22.526Z,77.50
2017-12-08T03:51:48.897Z,76.50
2017-12-08T03:54:16.114Z,76.60
2017-12-08T03:56:42.516Z,76.60
2017-12-08T03:59:08.946Z,76.90
2017-12-08T04:01:35.350Z,78.50
2017-12-08T04:04:01.738Z,79.10
2017-12-08T04:06:28.151Z,80.10
2017-12-08T04:08:54.551Z,80.70
2017-12-08T04:11:20.962Z,80.20
2017-12-08T04:13:48.174Z,79.50
2017-12-08T04:16:14.596Z,79.40
2017-12-08T04:18:41.035Z,79.10
2017-12-08T04:21:07.421Z,78.70
2017-12-08T04:23:34.575Z,79.40
2017-12-08T04:26:01.023Z,79.30
2017-12-08T04:28:27.456Z,78.80
2017-12-08T04:30:53.940Z,78.30
2017-12-08T04:33:20.363Z,77.80
2017-12-08T04:35:46.772Z,77.20
2017-12-08T04:38:13.175Z,76.50
2017-12-08T04:40:39.574Z,76.30
2017-12-08T04:43:05.983Z,75.80
2017-12-08T04:45:32.404Z,76.20
2017-12-08T04:47:58.792Z,76.40
2017-12-08T04:50:25.984Z,75.10
2017-12-08T04:52:52.361Z,75.10
2017-12-08T04:55:19.530Z,74.50
2017-12-08T04:57:46.689Z,73.80
2017-12-08T05:00:13.121Z,73.80
2017-12-08T05:02:39.506Z,72.80
2017-12-08T05:05:05.920Z,71.40
2017-12-08T05:07:32.395Z,69.00
2017-12-08T05:09:58.823Z,68.90
2017-12-08T05:12:25.975Z,67.20
2017-12-08T05:14:53.125Z,65.90
2017-12-08T05:17:20.295Z,64.90
2017-12-08T05:19:47.418Z,65.20
2017-12-08T05:22:15.324Z,65.60
2017-12-08T05:24:41.718Z,65.60
2017-12-08T05:27:08.868Z,65.20
2017-12-08T05:29:35.267Z,65.20
2017-12-08T05:32:01.713Z,66.60
2017-12-08T05:34:28.843Z,66.00
2017-12-08T05:36:55.305Z,66.00
2017-12-08T05:39:23.229Z,65.40
2017-12-08T05:41:49.647Z,65.30
2017-12-08T05:44:16.036Z,65.90
2017-12-08T05:46:43.882Z,66.70
2017-12-08T05:49:10.284Z,66.70
2017-12-08T05:51:36.664Z,66.90
2017-12-08T05:54:03.111Z,66.70
2017-12-08T05:56:30.958Z,68.20
2017-12-08T05:58:57.359Z,68.10
2017-12-08T06:01:23.810Z,68.10
2017-12-08T06:03:50.206Z,67.80
2017-12-08T06:06:16.603Z,67.70
2017-12-08T06:08:44.492Z,68.30
2017-12-08T06:11:11.643Z,68.80
2017-12-08T06:13:38.826Z,69.30
2017-12-08T06:16:05.256Z,69.20
2017-12-08T06:18:32.459Z,69.40
2017-12-08T06:20:59.590Z,69.40
2017-12-08T06:23:25.994Z,69.40
2017-12-08T06:25:52.347Z,69.70
2017-12-08T06:28:18.762Z,70.20
2017-12-08T06:30:45.151Z,70.40
2017-12-08T06:33:12.299Z,71.10
2017-12-08T06:35:39.426Z,71.40
2017-12-08T06:38:06.724Z,71.20
2017-12-08T06:40:33.098Z,71.70
2017-12-08T06:42:59.528Z,72.40
2017-12-08T06:45:26.014Z,73.20
2017-12-08T06:47:52.409Z,73.70
2017-12-08T06:50:19.551Z,74.80
2017-12-08T06:52:47.419Z,75.40
2017-12-08T06:55:14.588Z,75.10
2017-12-08T06:57:41.701Z,75.00
2017-12-08T07:00:08.089Z,75.50
2017-12-08T07:02:35.242Z,76.20
2017-12-08T07:05:01.673Z,76.20
2017-12-08T07:07:28.789Z,76.70
2017-12-08T07:09:56.017Z,77.30
2017-12-08T07:12:22.440Z,77.20
2017-12-08T07:14:48.856Z,77.00
2017-12-08T07:17:15.271Z,77.40
2017-12-08T07:19:42.395Z,78.40
2017-12-08T07:22:09.556Z,79.70
2017-12-08T07:24:36.713Z,78.90
2017-12-08T07:27:03.857Z,79.00
2017-12-08T07:29:30.985Z,79.60
2017-12-08T07:31:58.848Z,79.50
2017-12-08T07:34:26.012Z,79.50
2017-12-08T07:36:52.430Z,79.60
2017-12-08T07:39:18.858Z,79.80
2017-12-08T07:41:45.272Z,80.20
2017-12-08T07:44:11.735Z,80.60
2017-12-08T07:46:39.603Z,81.00
2017-12-08T07:49:06.782Z,81.20
2017-12-08T07:51:33.340Z,81.20
2017-12-08T07:54:00.454Z,81.00
2017-12-08T07:56:27.603Z,80.80
2017-12-08T07:58:54.749Z,80.50
2017-12-08T08:01:21.867Z,80.90
2017-12-08T08:03:48.241Z,80.90
2017-12-08T08:06:14.633Z,81.10
2017-12-08T08:08:42.812Z,81.50
2017-12-08T08:11:09.535Z,81.50
2017-12-08T08:13:35.947Z,80.80
2017-12-08T08:16:02.356Z,80.10
2017-12-08T08:18:29.517Z,80.30
2017-12-08T08:20:55.935Z,80.30
2017-12-08T08:23:23.093Z,80.10
2017-12-08T08:25:49.521Z,80.10
2017-12-08T08:28:16.672Z,80.10
2017-12-08T08:30:43.820Z,80.00
2017-12-08T08:33:10.254Z,80.00
2017-12-08T08:35:36.725Z,80.00
2017-12-08T08:38:03.883Z,80.10
2017-12-08T08:40:30.326Z,80.20
2017-12-08T08:42:58.223Z,78.90
2017-12-08T08:45:25.354Z,78.70
2017-12-08T08:47:51.758Z,78.70
2017-12-08T08:50:18.192Z,78.30
2017-12-08T08:52:44.631Z,77.90
2017-12-08T08:55:11.107Z,78.20
2017-12-08T08:57:38.299Z,77.70
2017-12-08T09:00:04.786Z,77.70
2017-12-08T09:02:31.155Z,77.60
2017-12-08T09:04:57.566Z,77.90
2017-12-08T09:07:24.689Z,77.90
2017-12-08T09:09:51.070Z,77.80
2017-12-08T09:14:50.104Z,78.50
2017-12-08T09:17:16.509Z,79.30
2017-12-08T09:19:42.925Z,79.50
2017-12-08T09:22:10.014Z,80.20
2017-12-08T09:24:42.247Z,79.90
2017-12-08T09:27:08.667Z,79.90
2017-12-08T09:29:35.882Z,79.90
2017-12-08T09:32:02.292Z,79.90
2017-12-08T09:34:28.718Z,80.00
2017-12-08T09:36:55.098Z,80.10
2017-12-08T09:39:21.536Z,80.70
2017-12-08T09:41:48.685Z,81.70
2017-12-08T09:44:15.129Z,81.60
2017-12-08T09:46:42.291Z,82.10
2017-12-08T09:49:08.690Z,82.10
2017-12-08T09:51:35.112Z,82.10
2017-12-08T09:54:01.512Z,82.10
2017-12-08T09:56:27.947Z,82.20
2017-12-08T09:58:55.368Z,81.80
2017-12-08T10:01:22.532Z,82.40
2017-12-08T10:03:48.959Z,82.30
2017-12-08T10:06:15.366Z,82.60
2017-12-08T10:08:41.776Z,82.20
2017-12-08T10:11:08.167Z,81.60
2017-12-08T10:13:34.555Z,81.30
2017-12-08T10:16:00.939Z,81.50
2017-12-08T10:18:27.382Z,81.30
2017-12-08T10:20:53.781Z,81.40
2017-12-08T10:23:20.960Z,81.70
2017-12-08T10:25:47.374Z,81.60
2017-12-08T10:28:13.806Z,81.30
2017-12-08T10:30:40.293Z,81.50
2017-12-08T10:33:11.752Z,82.40
2017-12-08T10:35:38.154Z,81.60
2017-12-08T10:38:04.679Z,80.80
2017-12-08T10:40:31.976Z,81.00
2017-12-08T10:42:58.359Z,81.70
2017-12-08T10:45:24.790Z,81.70
2017-12-08T10:47:51.210Z,82.40
2017-12-08T10:50:17.601Z,81.70
2017-12-08T10:52:43.995Z,81.60
2017-12-08T10:55:10.407Z,80.40
2017-12-08T10:57:36.851Z,80.40
2017-12-08T11:00:03.355Z,80.70
2017-12-08T11:02:30.549Z,79.70
2017-12-08T11:04:56.960Z,79.70
2017-12-08T11:07:23.379Z,80.20
2017-12-08T11:09:50.527Z,79.60
2017-12-08T11:12:18.271Z,79.50
2017-12-08T11:14:44.683Z,80.10
2017-12-08T11:17:11.128Z,80.70
2017-12-08T11:19:37.526Z,80.70
2017-12-08T11:22:03.960Z,80.30
2017-12-08T11:24:30.379Z,80.20
2017-12-08T11:26:56.788Z,80.10
2017-12-08T11:29:23.918Z,81.00
2017-12-08T11:31:50.304Z,80.90
2017-12-08T11:34:16.679Z,81.70
2017-12-08T11:36:43.805Z,82.20
2017-12-08T11:39:10.200Z,82.20
2017-12-08T11:41:36.620Z,82.60
2017-12-08T11:44:03.090Z,82.60
2017-12-08T11:46:29.487Z,82.10
2017-12-08T11:48:55.876Z,82.00
2017-12-08T11:51:23.768Z,82.10
2017-12-08T11:53:51.056Z,82.50
2017-12-08T11:56:17.418Z,82.50
2017-12-08T11:58:44.686Z,82.30
2017-12-08T12:01:11.084Z,82.40
2017-12-08T12:03:37.478Z,82.70
2017-12-08T12:06:04.588Z,82.80
2017-12-08T12:08:31.011Z,82.90
2017-12-08T12:10:58.499Z,82.70
2017-12-08T12:13:25.666Z,82.80
2017-12-08T12:15:52.063Z,82.80
2017-12-08T12:18:18.469Z,82.50
2017-12-08T12:20:44.864Z,82.10
2017-12-08T12:23:11.251Z,82.10
2017-12-08T12:25:38.408Z,82.10
2017-12-08T12:28:04.794Z,82.20
2017-12-08T12:30:31.223Z,82.00
2017-12-08T12:32:57.602Z,82.50
2017-12-08T12:35:25.505Z,81.90
2017-12-08T12:37:52.618Z,81.50
2017-12-08T12:40:20.474Z,81.30
2017-12-08T12:42:46.938Z,81.30
2017-12-08T12:45:14.080Z,81.70
2017-12-08T12:47:40.649Z,81.20
2017-12-08T12:50:09.210Z,80.90
2017-12-08T12:52:36.395Z,80.90
2017-12-08T12:55:02.809Z,80.90
2017-12-08T12:57:29.928Z,81.30
2017-12-08T12:59:56.348Z,81.20
2017-12-08T13:02:22.747Z,80.80
2017-12-08T13:04:49.135Z,80.50
2017-12-08T13:07:16.251Z,80.80
2017-12-08T13:09:42.612Z,80.80
2017-12-08T13:12:08.983Z,80.40
2017-12-08T13:14:35.462Z,80.90
2017-12-08T13:17:03.348Z,80.30
2017-12-08T13:19:30.483Z,80.80
2017-12-08T13:21:58.390Z,80.50
2017-12-08T13:24:24.943Z,80.50
2017-12-08T13:26:51.338Z,80.60
2017-12-08T13:29:18.500Z,82.90
2017-12-08T13:31:45.631Z,85.70
2017-12-08T13:34:12.062Z,85.70
2017-12-08T13:36:39.188Z,87.00
2017-12-08T13:39:05.569Z,87.50
2017-12-08T13:41:32.725Z,87.30
2017-12-08T13:43:59.438Z,87.20
2017-12-08T13:46:26.567Z,86.30
2017-12-08T13:48:52.935Z,86.30
2017-12-08T13:51:20.054Z,86.50
2017-12-08T13:53:58.567Z,86.50
2017-12-08T13:56:47.931Z,86.30
2017-12-08T13:59:14.312Z,86.40
2017-12-08T14:01:40.691Z,86.20
2017-12-08T14:04:08.604Z,85.60
2017-12-08T14:06:35.030Z,85.60
2017-12-08T14:09:02.272Z,85.80
2017-12-08T14:11:28.760Z,85.80
2017-12-08T14:13:55.152Z,85.80
2017-12-08T14:16:21.626Z,85.50
2017-12-08T14:18:48.044Z,85.20
2017-12-08T14:21:14.478Z,84.90
2017-12-08T14:23:41.852Z,84.50
2017-12-08T14:26:08.327Z,84.70
2017-12-08T14:28:34.745Z,84.60
2017-12-08T14:31:01.892Z,84.70
2017-12-08T14:33:29.765Z,84.60
2017-12-08T14:35:56.916Z,84.80
2017-12-08T14:38:23.328Z,84.80
2017-12-08T14:40:49.755Z,84.90
2017-12-08T14:43:16.175Z,84.80
2017-12-08T14:45:42.568Z,84.80
2017-12-08T14:48:09.160Z,85.00
2017-12-08T14:50:35.558Z,84.90
2017-12-08T14:53:01.973Z,84.60
2017-12-08T14:55:28.370Z,85.00
2017-12-08T14:57:55.499Z,84.80
2017-12-08T15:00:21.906Z,84.80
2017-12-08T15:02:49.023Z,84.70
2017-12-08T15:05:16.184Z,84.90
2017-12-08T15:07:42.606Z,84.80
2017-12-08T15:10:09.764Z,85.10
2017-12-08T15:12:36.173Z,85.00
2017-12-08T15:15:03.377Z,86.00
2017-12-08T15:17:29.906Z,85.90
2017-12-08T15:19:56.322Z,87.80
2017-12-08T15:22:22.695Z,88.70
2017-12-08T15:24:49.112Z,87.90
2017-12-08T15:27:15.544Z,87.20
2017-12-08T15:29:41.940Z,86.90
2017-12-08T15:32:09.229Z,87.00
2017-12-08T15:34:35.779Z,87.00
2017-12-08T15:37:02.223Z,87.40
2017-12-08T15:39:28.652Z,87.60
2017-12-08T15:41:56.567Z,87.80
2017-12-08T15:44:22.964Z,87.70
2017-12-08T15:46:50.185Z,87.10
2017-12-08T15:49:16.650Z,87.10
2017-12-08T15:51:43.046Z,87.30
2017-12-08T15:54:09.481Z,87.50
2017-12-08T15:56:35.884Z,87.40
2017-12-08T15:59:02.332Z,87.30
2017-12-08T16:01:28.760Z,86.90
2017-12-08T16:03:55.197Z,86.60
2017-12-08T16:06:21.867Z,86.70
2017-12-08T16:08:48.281Z,86.80
2017-12-08T16:11:15.826Z,87.40
2017-12-08T16:13:42.231Z,87.90
2017-12-08T16:16:09.368Z,88.70
2017-12-08T16:18:36.523Z,88.60
2017-12-08T16:21:03.770Z,89.50
2017-12-08T16:23:30.155Z,89.50
2017-12-08T16:25:56.592Z,90.00
2017-12-08T16:28:23.049Z,90.00
2017-12-08T16:30:49.430Z,89.70
2017-12-08T16:33:17.937Z,89.00
2017-12-08T16:35:44.379Z,89.10
2017-12-08T16:38:10.818Z,89.50
2017-12-08T16:40:37.299Z,89.20
2017-12-08T16:43:04.440Z,88.70
2017-12-08T16:45:31.615Z,88.30
2017-12-08T16:47:58.744Z,88.10
2017-12-08T16:50:25.931Z,88.70
2017-12-08T16:52:52.315Z,88.70
2017-12-08T16:55:19.442Z,89.60
2017-12-08T16:57:45.816Z,89.60
2017-12-08T17:00:12.249Z,89.50
2017-12-08T17:02:38.619Z,89.50
2017-12-08T17:05:05.060Z,89.30
2017-12-08T17:07:31.455Z,89.20
2017-12-08T17:09:57.822Z,88.80
2017-12-08T17:12:24.217Z,88.70
2017-12-08T17:14:50.621Z,88.30
2017-12-08T17:17:17.098Z,88.30
2017-12-08T17:19:43.505Z,87.90
2017-12-08T17:22:09.963Z,87.90
2017-12-08T17:24:36.392Z,87.30
2017-12-08T17:27:02.826Z,86.90
2017-12-08T17:29:29.239Z,86.30
2017-12-08T17:31:55.647Z,86.30
2017-12-08T17:34:22.843Z,86.00
2017-12-08T17:36:49.252Z,86.00
2017-12-08T17:39:15.632Z,85.60
2017-12-08T17:41:42.835Z,84.70
2017-12-08T17:44:09.210Z,84.70
2017-12-08T17:46:36.354Z,84.30
2017-12-08T17:49:02.757Z,84.30
2017-12-08T17:51:29.143Z,83.80
2017-12-08T17:53:55.537Z,83.30
2017-12-08T17:56:21.944Z,83.40
2017-12-08T17:58:49.108Z,83.90
2017-12-08T18:01:15.506Z,83.90
2017-12-08T18:03:42.637Z,82.90
2017-12-08T18:06:09.079Z,82.90
2017-12-08T18:08:36.258Z,82.90
2017-12-08T18:11:02.691Z,82.50
2017-12-08T18:13:29.811Z,82.10
2017-12-08T18:15:56.267Z,82.10
2017-12-08T18:18:23.445Z,81.90
2017-12-08T18:20:49.882Z,81.90
2017-12-08T18:23:16.432Z,81.50
2017-12-08T18:25:42.824Z,81.70
2017-12-08T18:28:10.051Z,81.90
2017-12-08T18:30:37.225Z,83.40
2017-12-08T18:33:03.658Z,83.40
2017-12-08T18:35:30.091Z,83.60
2017-12-08T18:37:56.588Z,83.10
2017-12-08T18:40:23.071Z,83.20
2017-12-08T18:42:49.482Z,82.90
2017-12-08T18:45:15.954Z,83.50
2017-12-08T18:47:42.399Z,83.00
2017-12-08T18:50:09.596Z,82.60
2017-12-08T18:52:36.822Z,82.90
2017-12-08T18:55:04.022Z,82.80
2017-12-08T18:57:30.630Z,82.80
2017-12-08T18:59:57.088Z,83.00
2017-12-08T19:02:23.498Z,83.10
2017-12-08T19:04:50.696Z,82.90
2017-12-08T19:07:17.098Z,83.50
2017-12-08T19:09:43.502Z,82.90
2017-12-08T19:12:10.660Z,83.60
2017-12-08T19:14:37.840Z,84.00
2017-12-08T19:17:04.282Z,83.80
2017-12-08T19:19:30.677Z,84.40
2017-12-08T19:21:57.824Z,84.70
2017-12-08T19:24:25.007Z,84.50
2017-12-08T19:26:51.483Z,84.40
2017-12-08T19:29:19.366Z,84.10
2017-12-08T19:31:45.761Z,84.20
2017-12-08T19:34:12.182Z,83.90
2017-12-08T19:36:38.617Z,83.60
2017-12-08T19:39:05.024Z,83.10
2017-12-08T19:41:31.445Z,83.40
2017-12-08T19:43:58.628Z,83.40
2017-12-08T19:46:25.028Z,83.40
2017-12-08T19:48:52.194Z,84.30
2017-12-08T19:51:18.607Z,84.30
2017-12-08T19:53:45.748Z,84.10
2017-12-08T19:56:12.165Z,84.10
2017-12-08T19:58:38.621Z,83.10
2017-12-08T20:01:05.773Z,83.70
2017-12-08T20:03:32.167Z,83.70
2017-12-08T20:05:58.618Z,83.50
2017-12-08T20:08:25.001Z,83.60
2017-12-08T20:10:51.433Z,83.70
2017-12-08T20:13:17.851Z,83.80
2017-12-08T20:15:49.323Z,83.50
2017-12-08T20:18:15.785Z,83.10
2017-12-08T20:20:42.220Z,82.90
2017-12-08T20:23:08.648Z,82.50
2017-12-08T20:25:35.032Z,83.50
2017-12-08T20:28:01.583Z,84.30
2017-12-08T20:30:28.000Z,84.50
2017-12-08T20:32:54.435Z,84.60
2017-12-08T20:35:20.830Z,84.20
2017-12-08T20:37:47.250Z,84.10
2017-12-08T20:40:13.681Z,84.10
2017-12-08T20:42:40.078Z,84.40
2017-12-08T20:45:06.646Z,84.30
2017-12-08T20:47:33.048Z,84.20
2017-12-08T20:49:59.446Z,84.80
2017-12-08T20:52:26.591Z,85.10
2017-12-08T20:54:53.719Z,84.90
2017-12-08T20:57:20.120Z,84.80
2017-12-08T20:59:46.511Z,84.70
2017-12-08T21:02:13.656Z,84.50
2017-12-08T21:04:40.792Z,84.30
2017-12-08T21:07:07.209Z,84.30
2017-12-08T21:09:33.628Z,83.50
2017-12-08T21:12:00.094Z,83.10
2017-12-08T21:14:26.492Z,83.00
2017-12-08T21:16:58.667Z,83.10
2017-12-08T21:19:25.544Z,83.30
2017-12-08T21:21:52.666Z,82.60
2017-12-08T21:24:19.039Z,82.50
2017-12-08T21:26:46.224Z,81.80
2017-12-08T21:29:12.655Z,81.80
2017-12-08T21:31:39.094Z,81.70
2017-12-08T21:34:05.483Z,81.30
2017-12-08T21:36:32.606Z,80.20
2017-12-08T21:38:59.006Z,80.20
2017-12-08T21:41:25.379Z,79.40
2017-12-08T21:43:51.781Z,79.30
2017-12-08T21:46:18.173Z,79.40
2017-12-08T21:48:44.568Z,78.90
2017-12-08T21:51:10.971Z,79.00
2017-12-08T21:53:37.388Z,79.00
2017-12-08T21:56:03.761Z,79.10
2017-12-08T21:58:31.682Z,78.50
2017-12-08T22:00:58.071Z,78.40
2017-12-08T22:03:25.217Z,78.10
2017-12-08T22:05:51.637Z,78.00
2017-12-08T22:08:18.078Z,77.80
2017-12-08T22:10:44.576Z,77.80
2017-12-08T22:13:10.980Z,77.90
2017-12-08T22:15:37.434Z,77.70
2017-12-08T22:18:03.890Z,77.70
2017-12-08T22:20:30.312Z,77.90
2017-12-08T22:22:56.720Z,77.80
2017-12-08T22:25:23.126Z,77.80
2017-12-08T22:27:50.360Z,77.50
2017-12-08T22:30:16.748Z,77.50
2017-12-08T22:32:43.126Z,77.60
2017-12-08T22:35:09.702Z,78.70
2017-12-08T22:37:36.123Z,77.60
2017-12-08T22:40:03.314Z,77.30
2017-12-08T22:42:29.734Z,77.20
2017-12-08T22:44:56.157Z,76.80
2017-12-08T22:47:22.557Z,77.10
2017-12-08T22:49:49.700Z,77.40
2017-12-08T22:52:16.901Z,77.10
2017-12-08T22:54:43.328Z,77.10
2017-12-08T22:57:09.711Z,76.70
2017-12-08T22:59:36.086Z,76.40
2017-12-08T23:02:02.484Z,76.10
2017-12-08T23:04:28.911Z,75.30
2017-12-08T23:06:55.313Z,75.10
2017-12-08T23:09:21.701Z,75.20
2017-12-08T23:11:48.113Z,75.30
2017-12-08T23:14:15.229Z,75.40
2017-12-08T23:16:41.712Z,75.30
2017-12-08T23:19:08.118Z,75.30
2017-12-08T23:21:34.500Z,76.00
2017-12-08T23:24:00.877Z,75.90
2017-12-08T23:26:27.286Z,75.60
2017-12-08T23:28:53.682Z,75.40
2017-12-08T23:31:20.079Z,75.50
2017-12-08T23:33:51.511Z,75.30
2017-12-08T23:36:17.914Z,75.30
2017-12-08T23:38:44.288Z,75.30
2017-12-08T23:41:12.154Z,75.70
2017-12-08T23:43:38.595Z,75.70
2017-12-08T23:46:05.736Z,75.90
2017-12-08T23:48:32.123Z,75.90
2017-12-08T23:50:58.488Z,76.20
2017-12-08T23:53:24.891Z,76.40
2017-12-08T23:55:52.106Z,76.40
2017-12-08T23:58:19.238Z,76.50
